Home > Products > Valid Products > TAF

000
FTUS41 KALY 282000 AAA
TAFPOU
TAF AMD
KPOU 282006Z 2820/2918 29008G14KT P6SM BKN045
     FM282300 29003KT P6SM SCT045
     FM290300 00000KT P6SM SKC
     FM291400 20004KT P6SM OVC100=



000
FTUS41 KALY 281700 RRA
TAFALB
TAF
KALB 281747Z 2818/2918 30008G14KT P6SM VCSH BKN060
     FM290000 28006KT P6SM BKN045
     FM290400 VRB03KT P6SM SCT045
     FM291400 17006KT P6SM OVC120=



000
FTUS41 KALY 281700 RRA
TAFGFL
TAF
KGFL 281747Z 2818/2918 30008G14KT P6SM VCSH SCT030 BKN050
     FM282300 VRB03KT P6SM BKN045
     FM290200 00000KT P6SM SCT040
     FM291500 17005KT P6SM OVC120=



000
FTUS41 KALY 281700 RRA
TAFPOU
TAF
KPOU 281747Z 2818/2918 30007KT P6SM BKN045
     FM282300 29003KT P6SM SCT045
     FM290300 00000KT P6SM SKC
     FM291400 20004KT P6SM OVC100=



000
FTUS41 KALY 281700
TAFALB
TAF
KALB 281735Z 2818/2918 30008G14KT P6SM VCSH BKN060
     FM290000 28006KT P6SM BKN045
     FM290400 VRB03KT P6SM SCT045
     FM291400 17006KT P6SM OVC120=



000
FTUS41 KALY 281700
TAFPOU
TAF
KPOU 281735Z 2818/2918 30007KT P6SM BKN045
     FM282300 29003KT P6SM SCT045
     FM290300 00000KT P6SM SKC
     FM291400 20004KT P6SM OVC100=



000
FTUS41 KALY 281700
TAFGFL
TAF
KGFL 281735Z 2818/2918 28005KT P6SM VCSH SCT030 BKN050
     FM282300 VRB03KT P6SM BKN045
     FM290200 00000KT P6SM SCT040
     FM291500 17005KT P6SM OVC120=



000
FTUS41 KALY 281200 AAA
TAFGFL
TAF AMD
KGFL 281217Z 2812/2912 00000KT 6SM BR SCT020 OVC050
      TEMPO 2812/2814 1/2SM FZFG
     FM281400 31007KT P6SM BKN045
     FM290000 VRB03KT P6SM BKN040=



000
FTUS41 KALY 281100 CCA
TAFGFL
TAF COR
KGFL 281158Z 2812/2912 VRB03KT 6SM BR SCT020 OVC050
      TEMPO 2812/2814 4SM BR
     FM281400 31007KT P6SM BKN045
     FM290000 VRB03KT P6SM BKN040=



000
FTUS41 KALY 281100
TAFPOU
TAF
KPOU 281130Z 2812/2912 00000KT P6SM OVC100
     FM281400 31008KT P6SM BKN045
     FM282200 29003KT P6SM SCT045 SCT150=



000
FTUS41 KALY 281100
TAFALB
TAF
KALB 281130Z 2812/2912 28004KT P6SM SCT040 BKN100
     FM281400 31008G12KT P6SM BKN040
     FM290000 28003KT P6SM BKN035=



000
FTUS41 KALY 281100
TAFGFL
TAF
KGFL 281130Z 2812/2912 VRB03KT 6SM BR SCT020 OVC050
     FM281400 31007KT P6SM BKN045
     FM290000 VRB03KT P6SM BKN040=



000
FTUS41 KALY 280900 AAB
TAFGFL
TAF AMD
KGFL 280922Z 2809/2906 00000KT 5SM -SN BR OVC035
      TEMPO 2809/2811 2SM -SN BR BKN020 OVC030
     FM281200 31007KT P6SM BKN045
     FM290000 VRB03KT P6SM BKN040=



000
FTUS41 KALY 280900 AAA
TAFPOU
TAF AMD
KPOU 280900Z 2809/2906 00000KT P6SM SCT060
      TEMPO 2809/2812 1/2SM FZFG
     FM281400 31008KT P6SM BKN045
     FM282200 29003KT P6SM SCT050 SCT150=



000
FTUS41 KALY 280600 AAA
TAFGFL
TAF AMD
KGFL 280650Z 2807/2906 00000KT 6SM -SN BR OVC035
      TEMPO 2807/2808 3SM -SN BR BKN025 OVC035
     FM280800 00000KT P6SM VCSH OVC035
      TEMPO 2808/2811 5SM -SN BR
     FM281400 31007KT P6SM BKN045
     FM290000 VRB03KT P6SM BKN040=



000
FTUS41 KALY 280500 CCB
TAFPOU
TAF COR
KPOU 280558Z 2806/2906 00000KT P6SM SCT060
      TEMPO 2806/2809 1/4SM FZFG VV003
     FM281400 31008KT P6SM BKN045
     FM282200 29003KT P6SM SCT050 SCT150=



000
FTUS41 KALY 280500 CCA
TAFPOU
TAF COR
KPOU 280541Z 2806/2906 00000KT P6SM VCSH OVC070
      TEMPO 2806/2809 2SM BR
     FM281400 31008KT P6SM BKN045
     FM282200 29003KT P6SM SCT050 SCT150=



000
FTUS41 KALY 280500
TAFPOU
TAF
KPOU 280535Z 2806/2906 00000KT P6SM VCSH OVC070
      TEMPO 2806/2809 3SM BR
     FM281400 31008KT P6SM BKN045
     FM282200 29003KT P6SM SCT050 SCT150=



000
FTUS41 KALY 280500
TAFALB
TAF
KALB 280535Z 2806/2906 00000KT P6SM VCSH SCT020 OVC070
      TEMPO 2806/2810 5SM -SN BR OVC030
     FM281000 31003KT P6SM BKN070
     FM281400 31008G12KT P6SM BKN040
     FM290000 28003KT P6SM BKN035=



000
FTUS41 KALY 280500
TAFGFL
TAF
KGFL 280535Z 2806/2906 00000KT 5SM -SN BR OVC035
      TEMPO 2806/2808 2SM -SN BR OVC009
     FM280800 00000KT P6SM VCSH OVC035
      TEMPO 2808/2811 5SM -SN BR
     FM281400 31007KT P6SM BKN045
     FM290000 VRB03KT P6SM BKN040=



000
FTUS41 KALY 280400 AAC
TAFALB
TAF AMD
KALB 280455Z 2805/2824 34005KT P6SM -SN SCT006 OVC070
     FM280600 32003KT P6SM VCSH BKN070
     FM281000 32003KT P6SM SCT025 BKN035
     FM281400 31010G15KT P6SM BKN045=



000
FTUS41 KALY 280400 AAC
TAFPOU
TAF AMD
KPOU 280453Z 2805/2824 00000KT P6SM VCSH BKN070 BKN080
      TEMPO 2805/2807 3/4SM BR BKN006
     FM281400 31008KT P6SM BKN050=



000
FTUS41 KALY 280400 AAD
TAFGFL
TAF AMD
KGFL 280438Z 2805/2824 02003KT 3SM -SN BR OVC035
     FM280600 02003KT P6SM VCSH OVC035
     FM281400 31007KT P6SM BKN045=



000
FTUS41 KALY 280400 AAB
TAFALB
TAF AMD
KALB 280437Z 2805/2824 34005KT 5SM -SN BR SCT006 OVC015
     FM280600 32003KT P6SM VCSH BKN025 OVC035
     FM281000 32003KT P6SM SCT025 BKN035
     FM281400 31010G15KT P6SM BKN045=



000
FTUS41 KALY 280300 AAC
TAFGFL
TAF AMD
KGFL 280300Z 2803/2824 03004KT 1 1/2SM -SN BR BKN018 OVC022
      TEMPO 2803/2804 3SM -SN BR OVC008
     FM280400 VRB02KT P6SM VCSH OVC035
     FM281400 31007KT P6SM BKN045=



000
FTUS41 KALY 280200 AAB
TAFGFL
TAF AMD
KGFL 280250Z 2803/2824 03004KT 3SM -SN BR FEW017 OVC022
      TEMPO 2803/2804 2SM -SN BR OVC008
     FM280400 VRB02KT P6SM VCSH OVC035
     FM281400 31007KT P6SM BKN045=



000
FTUS41 KALY 280200 AAB
TAFPOU
TAF AMD
KPOU 280234Z 2803/2824 30003KT P6SM VCSH SCT016 SCT050 OVC060
     FM281400 31008KT P6SM BKN050=



000
FTUS41 KALY 280200 AAA
TAFGFL
TAF AMD
KGFL 280226Z 2802/2824 03003KT 1SM -SN BR OVC018
      TEMPO 2802/2804 2SM -SN BR OVC008
     FM280400 VRB02KT P6SM VCSH OVC035
     FM281400 31007KT P6SM BKN045=



000
FTUS41 KALY 280200 AAA
TAFALB
TAF AMD
KALB 280207Z 2802/2824 00000KT 3SM -SN BR FEW008 OVC017
     FM280400 32003KT P6SM VCSH OVC035
     FM281400 31010G15KT P6SM BKN045=



000
FTUS41 KALY 280100 AAA
TAFPOU
TAF AMD
KPOU 280103Z 2801/2824 33003KT P6SM VCSH OVC018
     FM281400 31008KT P6SM BKN050=



000
FTUS41 KALY 272300
TAFALB
TAF
KALB 272320Z 2800/2824 33005KT 3SM -SN BR FEW008 BKN027 OVC035
      TEMPO 2800/2802 2SM -SN BR OVC008
     FM280400 32003KT P6SM VCSH OVC035
     FM281400 31010G15KT P6SM BKN045=



000
FTUS41 KALY 272300
TAFGFL
TAF
KGFL 272320Z 2800/2824 00000KT P6SM VCSH OVC021
      TEMPO 2800/2803 2SM -SN BR OVC008
     FM280600 VRB02KT P6SM VCSH OVC035
     FM281400 31007KT P6SM BKN045=



000
FTUS41 KALY 272300
TAFPOU
TAF
KPOU 272320Z 2800/2824 30003KT P6SM -SN OVC028
     FM280100 VRB02KT P6SM VCSH OVC035
     FM281400 31008KT P6SM BKN050=



000
FTUS41 KALY 272300 AAB
TAFPOU
TAF AMD
KPOU 272303Z 2723/2818 30003KT P6SM -SN OVC028
     FM280100 VRB02KT P6SM VCSH OVC035
     FM281400 31008KT P6SM BKN050=



000
FTUS41 KALY 272200 AAA
TAFPOU
TAF AMD
KPOU 272222Z 2722/2818 30003KT 5SM BR FEW016 OVC030
     FM280100 VRB02KT P6SM VCSH OVC035
     FM281400 31008KT P6SM BKN050=



000
FTUS41 KALY 272100 AAB
TAFALB
TAF AMD
KALB 272150Z 2722/2818 02004KT 5SM -SN BR FEW008 BKN035 OVC060
      TEMPO 2722/2801 2SM -SN BR OVC012
     FM280400 32003KT P6SM VCSH OVC035
     FM281400 31010G15KT P6SM BKN045=



000
FTUS41 KALY 272100 AAA
TAFALB
TAF AMD
KALB 272141Z 2722/2818 33005KT 6SM -SN SCT012 OVC030
      TEMPO 2722/2801 2SM -SN BR OVC012
     FM280400 32003KT P6SM VCSH OVC035
     FM281400 31010G15KT P6SM BKN045=



000
FTUS41 KALY 271700 RRA
TAFALB
TAF
KALB 271758Z 2718/2818 35005KT P6SM VCSH SCT016 OVC035
      TEMPO 2718/2721 3SM -SN BKN016 OVC030
     FM272100 33005KT 6SM -SN SCT012 OVC030
      TEMPO 2721/2801 2SM -SN BR OVC012
     FM280400 32003KT P6SM VCSH OVC035
     FM281400 31010G15KT P6SM BKN045=



000
FTUS41 KALY 271700 RRA
TAFPOU
TAF
KPOU 271758Z 2718/2818 35004KT 6SM -SN SCT012 OVC030
      TEMPO 2718/2722 2SM -SN BR OVC012
     FM280100 VRB02KT P6SM VCSH OVC035
     FM281400 31008KT P6SM BKN050=



000
FTUS41 KALY 271700 RRA
TAFGFL
TAF
KGFL 271758Z 2718/2818 06006KT P6SM VCSH OVC025
      TEMPO 2719/2723 3SM -SN BKN016 OVC025
     FM272300 04005KT 6SM -SN SCT012 OVC030
      TEMPO 2723/2803 2SM -SN BR OVC012
     FM280600 VRB02KT P6SM VCSH OVC035
     FM281400 31007KT P6SM BKN045=



000
FTUS41 KALY 271600 AAA
TAFPOU
TAF AMD
KPOU 271647Z 2717/2812 00000KT P6SM VCSH SCT015 OVC045
      TEMPO 2717/2721 3SM -SN BKN015 OVC030
     FM272100 31003KT 3SM -SN BR SCT012 OVC022
     FM280500 32003KT P6SM BKN040=



000
FTUS41 KALY 271500 AAB
TAFALB
TAF AMD
KALB 271554Z 2716/2812 33007KT P6SM VCSH SCT016 OVC035
      TEMPO 2716/2720 4SM -SN BKN016 OVC030
     FM272000 32005KT 2SM -SN BR SCT008 OVC014
     FM280900 31005KT P6SM BKN040=



000
FTUS41 KALY 271400 AAB
TAFGFL
TAF AMD
KGFL 271451Z 2715/2812 02009KT P6SM OVC035
      TEMPO 2715/2719 OVC030
     FM272100 32006KT 2SM -SN BR SCT012 OVC022
     FM281100 31005KT P6SM BKN040=



000
FTUS41 KALY 271400 AAA
TAFGFL
TAF AMD
KGFL 271414Z 2714/2812 03009KT P6SM OVC035
     FM272100 32006KT 2SM -SN BR SCT012 OVC022
     FM281100 31005KT P6SM BKN040=



000
FTUS41 KALY 271400 AAA
TAFALB
TAF AMD
KALB 271413Z 2714/2812 33007KT P6SM FEW012 OVC028
     FM271600 33006KT P6SM OVC035
     FM272100 32005KT 2SM -SN BR SCT008 OVC014
     FM280900 31005KT P6SM BKN040=



000
FTUS41 KALY 271100
TAFPOU
TAF
KPOU 271135Z 2712/2812 00000KT P6SM BKN120
      TEMPO 2712/2713 1/2SM FG OVC008
     FM271300 28003KT P6SM BKN035 BKN100
     FM272300 31003KT 2SM -SN BR SCT012 OVC022
     FM280500 32003KT P6SM BKN040=



000
FTUS41 KALY 271100
TAFGFL
TAF
KGFL 271135Z 2712/2812 03004KT P6SM OVC023
     FM271500 34005KT P6SM BKN035
     FM272100 32006KT 2SM -SN BR SCT012 OVC022
     FM281100 31005KT P6SM BKN040=



000
FTUS41 KALY 271100
TAFALB
TAF
KALB 271135Z 2712/2812 34005KT P6SM FEW008 OVC024
     FM271400 33006KT P6SM OVC035
     FM272100 32005KT 2SM -SN BR SCT008 OVC014
     FM280900 31005KT P6SM BKN040=



000
FTUS41 KALY 271100 AAD
TAFPOU
TAF AMD
KPOU 271104Z 2711/2806 00000KT 1 1/2SM BR FEW120
      TEMPO 2711/2713 1/2SM FG OVC008
     FM271300 33005KT P6SM BKN035 BKN100
     FM272000 32006KT 2SM -SN BR SCT008 OVC014=



000
FTUS41 KALY 271000 AAC
TAFPOU
TAF AMD
KPOU 271030Z 2710/2806 00000KT 1 1/2SM BR BKN029
      TEMPO 2710/2712 1/2SM FG OVC008
     FM271200 33005KT P6SM BKN035 BKN100
     FM272000 32006KT 2SM -SN BR SCT008 OVC014=



000
FTUS41 KALY 271000 AAC
TAFALB
TAF AMD
KALB 271030Z 2711/2806 32006KT P6SM -SN FEW008 OVC024
     FM271400 32006KT P6SM OVC035
     FM272000 32006KT 2SM -SN BR SCT008 OVC014=



000
FTUS41 KALY 271000 AAC
TAFPOU
TAF AMD
KPOU 271030Z 2710/2806 00000KT 1 1/2SM BR BKN029
      TEMPO 2710/2712 1/2SM FG OVC008
     FM271200 33005KT P6SM BKN035 BKN100
     FM272000 32006KT 2SM -SN BR SCT008 OVC014=



000
FTUS41 KALY 271000 AAC
TAFALB
TAF AMD
KALB 271030Z 2711/2806 32006KT P6SM -SN FEW008 OVC024
     FM271400 32006KT P6SM OVC035
     FM272000 32006KT 2SM -SN BR SCT008 OVC014=



000
FTUS41 KALY 270900 AAB
TAFPOU
TAF AMD
KPOU 270950Z 2710/2806 35003KT P6SM BKN028 OVC080
     FM271200 33005KT P6SM OVC035
     FM272000 32006KT 2SM -SN BR SCT008 OVC014=



000
FTUS41 KALY 270900 AAB
TAFALB
TAF AMD
KALB 270933Z 2710/2806 33007KT P6SM -SN FEW008 BKN018 BKN070
     FM271100 32006KT 6SM BR OVC025
     FM271400 32006KT P6SM OVC035
     FM272000 32006KT 2SM -SN BR SCT008 OVC014=



000
FTUS41 KALY 270900 AAC
TAFGFL
TAF AMD
KGFL 270933Z 2710/2806 34004KT P6SM BKN023
     FM271500 34005KT P6SM BKN035
     FM280100 32006KT 2SM -SN BR SCT012 OVC022=



000
FTUS41 KALY 270700 AAB
TAFGFL
TAF AMD
KGFL 270736Z 2708/2806 35006KT 2SM -SN BR FEW012 BKN023 OVC035
     FM271000 34006KT P6SM VCSH OVC035
     FM271500 34005KT P6SM BKN035
     FM280100 32006KT 2SM -SN BR SCT012 OVC022=



000
FTUS41 KALY 270700 AAA
TAFGFL
TAF AMD
KGFL 270704Z 2707/2806 35007KT 3SM -SN BR FEW009 FEW027 OVC035
     FM271000 34006KT P6SM VCSH OVC035
     FM271500 34005KT P6SM BKN035
     FM280100 32006KT 2SM -SN BR SCT012 OVC022=



000
FTUS41 KALY 270600 AAA
TAFALB
TAF AMD
KALB 270659Z 2707/2806 34010KT 1 1/2SM -SN BR FEW005 SCT010 OVC025
     FM270800 34007KT 3SM -SN BR OVC025
     FM271100 32006KT 6SM BR OVC025
     FM271400 32006KT P6SM OVC035
     FM272000 32006KT 2SM -SN BR SCT008 OVC014=



000
FTUS41 KALY 270600 AAA
TAFPOU
TAF AMD
KPOU 270659Z 2707/2806 35008KT 6SM -SHSN FEW018 OVC035
     FM270800 33005KT P6SM OVC035
     FM272000 32006KT 2SM -SN BR SCT008 OVC014=



000
FTUS41 KALY 270500 RRA
TAFALB
TAF
KALB 270542Z 2706/2806 34009KT 1SM -SN BR BKN007 OVC012
     FM270800 34007KT 3SM -SN BR OVC012
     FM271100 32006KT 6SM BR OVC025
     FM271400 32006KT P6SM OVC035
     FM272000 32006KT 2SM -SN BR SCT008 OVC014=



000
FTUS41 KALY 270500 RRA
TAFGFL
TAF
KGFL 270542Z 2706/2806 36012KT 2SM -SN BR OVC022
     FM270700 34007KT 3SM -SN BR OVC025
     FM271000 34006KT P6SM VCSH OVC025
     FM271500 34005KT P6SM OVC035
     FM280100 32006KT 2SM -SN BR SCT012 OVC022=



000
FTUS41 KALY 270500 RRA
TAFPOU
TAF
KPOU 270542Z 2706/2806 35011G18KT 4SM -SN BR BKN016 OVC030
     FM270800 33005KT P6SM OVC035
     FM272000 32006KT 2SM -SN BR SCT008 OVC014=



000
FTUS41 KALY 270400 AAA
TAFPOU
TAF AMD
KPOU 270402Z 2704/2724 01012G16KT 4SM -SN BR FEW008 OVC015
      TEMPO 2704/2706 1SM -SN BR BKN008 OVC015
     FM270600 33008KT P6SM VCSH OVC020
     FM271000 33005KT P6SM VCSH OVC035=



000
FTUS41 KALY 270400 AAA
TAFPOU
TAF AMD
KPOU 270402Z 2704/2724 01012G16KT 4SM -SN BR FEW008 OVC015
      TEMPO 2704/2706 1SM -SN BR BKN008 OVC015
     FM270600 33008KT P6SM VCSH OVC020
     FM271000 33005KT P6SM VCSH OVC035=



000
FTUS41 KALY 270100 AAA
TAFGFL
TAF AMD
KGFL 270135Z 2702/2724 01009KT 2SM -SN BR FEW007 OVC025
      TEMPO 2702/2704 1/2SM SN FZFG VV007
     FM270400 35010G15KT 2SM -SN BR SCT008 OVC030
     FM270700 34007KT 3SM -SN BR OVC012
     FM271000 34006KT P6SM VCSH OVC025
     FM271500 34005KT P6SM VCSH OVC035=



000
FTUS41 KALY 262300
TAFALB
TAF
KALB 262338Z 2700/2724 35010KT 1SM -SN BR SCT006 OVC015
      TEMPO 2700/2704 1/4SM +SN FZFG VV006
     FM270400 33010G15KT 2SM -SN BR OVC008
     FM270600 32010KT 3SM -SN BR OVC012
     FM271000 32006KT P6SM VCSH OVC025
     FM271400 32006KT P6SM VCSH OVC035=



000
FTUS41 KALY 262300
TAFPOU
TAF
KPOU 262338Z 2700/2724 01012G16KT 3SM -SN BR BKN009 OVC015
      TEMPO 2700/2703 3/4SM -SN BR SCT009 OVC015
     FM270300 34010G15KT 2SM -SN BR OVC008
     FM270600 33008KT P6SM VCSH OVC020
     FM271000 33005KT P6SM VCSH OVC035=



000
FTUS41 KALY 262300
TAFGFL
TAF
KGFL 262338Z 2700/2724 01009KT 1SM -SN BR OVC015
      TEMPO 2700/2704 1/2SM SN FZFG VV007
     FM270400 35010G15KT 2SM -SN BR OVC008
     FM270700 34007KT 3SM -SN BR OVC012
     FM271000 34006KT P6SM VCSH OVC025
     FM271500 34005KT P6SM VCSH OVC035=



000
FTUS41 KALY 262200 AAA
TAFALB
TAF AMD
KALB 262218Z 2622/2718 35009KT 1SM -SN BR SCT006 OVC015
      TEMPO 2622/2702 1/4SM +SN FZFG VV006
     FM270300 33010G15KT 2SM -SN BR OVC008
     FM270600 32010KT 3SM -SN BR OVC012
     FM271000 32006KT P6SM VCSH OVC025
     FM271400 32006KT P6SM VCSH OVC035=



000
FTUS41 KALY 262200 AAA
TAFGFL
TAF AMD
KGFL 262217Z 2622/2718 01009KT 1SM -SN BR OVC015
      TEMPO 2622/2702 1/2SM SN FZFG VV007
     FM270300 35010G15KT 2SM -SN BR OVC008
     FM270700 34007KT 3SM -SN BR OVC012
     FM271000 34006KT P6SM VCSH OVC025
     FM271500 34005KT P6SM OVC035=



000
FTUS41 KALY 262000 AAA
TAFPOU
TAF AMD
KPOU 262050Z 2621/2718 01008G14KT 1 1/2SM -SN BR BKN007 OVC011
      TEMPO 2621/2624 1/2SM SN FG VV005
     FM270000 01012G16KT 1/2SM SN FG VV004
     FM270200 34010G15KT 2SM -SN BR OVC008
     FM270600 33008KT P6SM VCSH OVC020
     FM271000 33005KT P6SM OVC035=



000
FTUS41 KALY 261700
TAFGFL
TAF
KGFL 261725Z 2618/2718 01008KT 3/4SM -SN BR OVC009
      TEMPO 2618/2622 1/4SM +SN FZFG VV004
     FM262200 01008G14KT 1/2SM SN FG VV005
     FM270300 35010G15KT 2SM -SN BR OVC008
     FM270700 34007KT 3SM -SN BR OVC012
     FM271000 34006KT P6SM VCSH OVC025
     FM271500 34005KT P6SM OVC035=



000
FTUS41 KALY 261700
TAFALB
TAF
KALB 261725Z 2618/2718 35008KT 3/4SM -SN BR VV007
      TEMPO 2618/2622 1/4SM +SN FZFG VV003
     FM262200 35008G14KT 1/2SM SN FG VV004
     FM270300 33010G15KT 2SM -SN BR OVC008
     FM270600 32010KT 3SM -SN BR OVC012
     FM271000 32006KT P6SM VCSH OVC025
     FM271400 32006KT P6SM VCSH OVC035=



000
FTUS41 KALY 261700
TAFPOU
TAF
KPOU 261725Z 2618/2718 01007KT 1/2SM -SN FG VV005
      TEMPO 2618/2622 1/4SM +SN FZFG VV003
     FM262200 01012G16KT 1/2SM SN FG VV004
     FM270200 34010G15KT 2SM -SN BR OVC008
     FM270600 33008KT P6SM VCSH OVC020
     FM271000 33005KT P6SM OVC035=



000
FTUS41 KALY 261600 AAB
TAFPOU
TAF AMD
KPOU 261655Z 2617/2712 01007KT 1/2SM -SN FG VV005
      TEMPO 2617/2621 1/4SM +SN FZFG VV003
     FM262100 01012KT 1/2SM SN FG VV004
     FM270100 34010KT 2SM -SN BR OVC008
     FM270500 33007KT P6SM OVC020
     FM271000 31003KT P6SM OVC035=



000
FTUS41 KALY 261600 AAA
TAFGFL
TAF AMD
KGFL 261618Z 2616/2712 01008KT P6SM VCSH SCT030 OVC060
     FM261700 34005KT 3SM -SN BR BKN020 OVC040
      TEMPO 2617/2618 1SM -SN BR VV009
     FM261800 03006KT 3/4SM -SN BR VV008
     FM262000 02008KT 1/2SM SN FG VV006
     FM270200 36008KT 2SM -SN BR OVC008
     FM271000 34006KT P6SM VCSH OVC025=



000
FTUS41 KALY 261600 AAC
TAFALB
TAF AMD
KALB 261612Z 2616/2712 31005KT 1SM -SN BR OVC015
      TEMPO 2616/2620 1/2SM SN FZFG VV006
     FM262000 35008KT 1/2SM SN FG VV004
     FM270200 33010KT 2SM -SN BR OVC008
     FM271000 32006KT P6SM VCSH OVC025=



000
FTUS41 KALY 261500 AAA
TAFPOU
TAF AMD
KPOU 261508Z 2615/2712 01007KT 3/4SM -SN BR VV009
      TEMPO 2615/2619 1/2SM SN FZFG VV005
     FM261900 01012KT 1/2SM SN FG VV004
     FM270100 34010KT 2SM -SN BR OVC008
     FM270500 33007KT P6SM OVC020
     FM271000 31003KT P6SM OVC035=



000
FTUS41 KALY 261500 AAA
TAFPOU
TAF AMD
KPOU 261508Z 2615/2712 01007KT 3/4SM -SN BR VV009
      TEMPO 2615/2619 1/2SM SN FZFG VV005
     FM261900 01012KT 1/2SM SN FG VV004
     FM270100 34010KT 2SM -SN BR OVC008
     FM270500 33007KT P6SM OVC020
     FM271000 31003KT P6SM OVC035=



000
FTUS41 KALY 261500 AAB
TAFALB
TAF AMD
KALB 261506Z 2615/2712 31005KT P6SM VCSH SCT040 OVC080
     FM261530 34005KT 2SM -SN BR SCT012 OVC020
     FM261600 35005KT 3/4SM -SN BR VV008
     FM261800 35008KT 1/2SM SN FG VV004
     FM270200 33010KT 2SM -SN BR OVC008
     FM271000 32006KT P6SM VCSH OVC025=



000
FTUS41 KALY 261400 AAA
TAFALB
TAF AMD
KALB 261427Z 2614/2712 31005KT P6SM VCSH SCT040 OVC080
     FM261500 34005KT 2SM -SN BR SCT012 OVC020
     FM261600 35005KT 3/4SM -SN BR VV008
     FM261800 35008KT 1/2SM SN FG VV004
     FM270200 33010KT 2SM -SN BR OVC008
     FM271000 32006KT P6SM VCSH OVC025=



000
FTUS41 KALY 261100 CCA
TAFPOU
TAF COR
KPOU 261159Z 2612/2712 01007KT P6SM -RASN SCT030 OVC080
     FM261400 02008KT 2SM -SN BR SCT012 OVC020
     FM261600 01009KT 3/4SM -SN BR VV008
     FM261800 01012KT 1/2SM SN FG VV004
     FM270100 34010KT 2SM -SN BR OVC008
     FM270500 33007KT P6SM OVC020
     FM271000 31003KT P6SM OVC035=



000
FTUS41 KALY 261100
TAFGFL
TAF
KGFL 261128Z 2612/2712 34004KT P6SM SCT040 OVC130
     FM261400 34005KT P6SM BKN040 OVC080
      TEMPO 2615/2616 3SM -SN BR BKN020 OVC040
     FM261600 36005KT 2SM -SN BR SCT012 OVC020
     FM261800 03006KT 1SM -SN BR VV008
     FM262000 02008KT 1/2SM SN FG VV006
     FM270200 36008KT 2SM -SN BR OVC008
     FM271000 34006KT P6SM VCSH OVC025=



000
FTUS41 KALY 261100
TAFPOU
TAF
KPOU 261128Z 2612/2712 02008KT 4SM -RASN BR SCT020 OVC080
     FM261400 02008KT 2SM -SN BR SCT012 OVC020
     FM261600 01009KT 3/4SM -SN BR VV008
     FM261800 01012KT 1/2SM SN FG VV004
     FM270100 34010KT 2SM -SN BR OVC008
     FM270500 33007KT P6SM OVC020
     FM271000 31003KT P6SM OVC035=



000
FTUS41 KALY 261100
TAFALB
TAF
KALB 261128Z 2612/2712 31005KT P6SM SCT040 OVC080
      TEMPO 2613/2614 3SM -SN BR BKN020 OVC040
     FM261400 34005KT 2SM -SN BR SCT012 OVC020
     FM261600 35005KT 3/4SM -SN BR VV008
     FM261800 35008KT 1/2SM SN FG VV004
     FM270200 33010KT 2SM -SN BR OVC008
     FM271000 32006KT P6SM VCSH OVC025=



000
FTUS41 KALY 260500
TAFPOU
TAF
KPOU 260539Z 2606/2706 VRB02KT P6SM SCT090 BKN130 OVC200
     FM260900 36003KT P6SM VCSH SCT030 OVC080
      TEMPO 2611/2612 2SM -SN BR OVC020
     FM261200 36003KT 2SM -SN BR OVC015
     FM261400 01006KT 3/4SM -SN BR VV007
     FM261600 01008KT 1/2SM SN FG VV003
     FM270100 34010KT 2SM -SN BR OVC008
     FM270500 33007KT P6SM OVC020=



000
FTUS41 KALY 260500
TAFALB
TAF
KALB 260539Z 2606/2706 32005KT P6SM SCT040 BKN130 OVC200
     FM261100 33004KT P6SM VCSH SCT040 OVC080
     FM261300 35004KT 2SM -SN BR OVC020
     FM261500 36005KT 3/4SM -SN BR VV008
     FM261900 35008KT 1/2SM SN FG VV004
     FM270200 33010KT 2SM -SN BR OVC008=



000
FTUS41 KALY 260500
TAFGFL
TAF
KGFL 260539Z 2606/2706 31003KT P6SM SCT040 BKN130 OVC200
     FM261300 01003KT P6SM VCSH BKN040 OVC080
     FM261500 36004KT 2SM -SN BR OVC020
     FM261700 03006KT 1SM -SN BR VV008
     FM262100 02008KT 3/4SM -SN BR VV006
     FM270200 36008KT 2SM -SN BR OVC008=



000
FTUS41 KALY 252300
TAFPOU
TAF
KPOU 252331Z 2600/2624 VRB03KT P6SM OVC250
     FM260500 00000KT P6SM BKN150 OVC250
     FM260900 35003KT P6SM VCSH SCT040 OVC100
     FM261200 36003KT 2SM -SN BR OVC010
     FM261500 01005KT 3/4SM -SN BR VV006
     FM261700 02006KT 1/2SM SN FG VV004=



000
FTUS41 KALY 252300
TAFGFL
TAF
KGFL 252331Z 2600/2624 21005KT P6SM SCT150 OVC250
     FM260600 31005KT P6SM SCT050 BKN150 OVC250
     FM261400 36003KT P6SM VCSH BKN040 OVC120
     FM261600 36004KT 2SM -SN BR OVC020=



000
FTUS41 KALY 252300
TAFALB
TAF
KALB 252331Z 2600/2624 23005KT P6SM SCT150 OVC250
     FM260600 29005KT P6SM SCT050 OVC200
     FM261100 30004KT P6SM VCSH SCT040 BKN080 OVC120
     FM261400 35004KT 2SM -SN BR OVC020
     FM261600 35004KT 3/4SM -SN BR VV008=



    US Dept of Commerce
    National Oceanic and Atmospheric Administration
    National Weather Service
    1325 East West Highway
    Silver Spring, MD 20910
    Page Author: NWS Internet Services Team
Disclaimer
Information Quality
Credits
Glossary
Privacy Policy
Freedom of Information Act (FOIA)
About Us
Career Opportunities